<?xml version="1.0" encoding="UTF-8" standalone="no" ?><gpx xmlns="http://www.topografix.com/GPX/1/1" xmlns:gpxx="http://www.garmin.com/xmlschemas/GpxExtensions/v3" xmlns:wptx1="http://www.garmin.com/xmlschemas/WaypointExtension/v1" xmlns:gpxtpx="http://www.garmin.com/xmlschemas/TrackPointExtension/v1" creator="Dakota 20" version="1.1" xmlns:xsi="http://www.w3.org/2001/XMLSchema-instance" xsi:schemaLocation="http://www.topografix.com/GPX/1/1 http://www.topografix.com/GPX/1/1/gpx.xsd http://www.garmin.com/xmlschemas/GpxExtensions/v3 http://www8.garmin.com/xmlschemas/GpxExtensionsv3.xsd http://www.garmin.com/xmlschemas/WaypointExtension/v1 http://www8.garmin.com/xmlschemas/WaypointExtensionv1.xsd http://www.garmin.com/xmlschemas/TrackPointExtension/v1 http://www.garmin.com/xmlschemas/TrackPointExtensionv1.xsd"><metadata><link href="http://www.garmin.com"><text>Garmin International</text></link><time>2013-10-23T16:25:20Z</time></metadata><trk><name>Current Track: 23 OCT 2013 09:53</name><extensions><gpxx:TrackExtension><gpxx:DisplayColor>Cyan</gpxx:DisplayColor></gpxx:TrackExtension></extensions><trkseg><trkpt lat="51.9372415915" lon="-1.8603215832"><ele>205.38</ele><time>2013-10-23T08:53:51Z</time></trkpt><trkpt lat="51.9365772419" lon="-1.8602780811"><ele>202.98</ele><time>2013-10-23T08:59:41Z</time></trkpt><trkpt lat="51.9358120579" lon="-1.8610000145"><ele>204.90</ele><time>2013-10-23T09:01:20Z</time></trkpt><trkpt lat="51.9352798909" lon="-1.8622948509"><ele>212.11</ele><time>2013-10-23T09:02:58Z</time></trkpt><trkpt lat="51.9347260986" lon="-1.8636056129"><ele>218.84</ele><time>2013-10-23T09:05:26Z</time></trkpt><trkpt lat="51.9341153931" lon="-1.8650023732"><ele>217.88</ele><time>2013-10-23T09:06:55Z</time></trkpt><trkpt lat="51.9333177712" lon="-1.8662875704"><ele>212.59</ele><time>2013-10-23T09:09:02Z</time></trkpt><trkpt lat="51.9326121826" lon="-1.8671590369"><ele>205.86</ele><time>2013-10-23T09:10:36Z</time></trkpt><trkpt lat="51.9318278879" lon="-1.8680758495"><ele>199.13</ele><time>2013-10-23T09:12:23Z</time></trkpt><trkpt lat="51.9310792163" lon="-1.8690476473"><ele>193.36</ele><time>2013-10-23T09:15:14Z</time></trkpt><trkpt lat="51.9305658247" lon="-1.8685886543"><ele>194.32</ele><time>2013-10-23T09:17:15Z</time></trkpt><trkpt lat="51.9298510998" lon="-1.8676193710"><ele>194.32</ele><time>2013-10-23T09:18:32Z</time></trkpt><trkpt lat="51.9292724133" lon="-1.8690231722"><ele>186.63</ele><time>2013-10-23T09:19:55Z</time></trkpt><trkpt lat="51.9286040403" lon="-1.8696594425"><ele>185.19</ele><time>2013-10-23T09:21:59Z</time></trkpt><trkpt lat="51.9276987948" lon="-1.8700657133"><ele>182.31</ele><time>2013-10-23T09:23:49Z</time></trkpt><trkpt lat="51.9265316147" lon="-1.8691911455"><ele>166.93</ele><time>2013-10-23T09:27:03Z</time></trkpt><trkpt lat="51.9265257474" lon="-1.8703259714"><ele>176.54</ele><time>2013-10-23T09:29:31Z</time></trkpt><trkpt lat="51.9263453688" lon="-1.8717023637"><ele>187.11</ele><time>2013-10-23T09:32:13Z</time></trkpt><trkpt lat="51.9270498678" lon="-1.8725850619"><ele>186.15</ele><time>2013-10-23T09:34:48Z</time></trkpt><trkpt lat="51.9278606493" lon="-1.8732315581"><ele>185.67</ele><time>2013-10-23T09:35:55Z</time></trkpt><trkpt lat="51.9285484683" lon="-1.8741663918"><ele>189.52</ele><time>2013-10-23T09:37:01Z</time></trkpt><trkpt lat="51.9292637799" lon="-1.8750310689"><ele>189.04</ele><time>2013-10-23T09:38:08Z</time></trkpt><trkpt lat="51.9298174046" lon="-1.8762870971"><ele>182.31</ele><time>2013-10-23T09:39:20Z</time></trkpt><trkpt lat="51.9305322133" lon="-1.8776347395"><ele>177.50</ele><time>2013-10-23T09:41:00Z</time></trkpt><trkpt lat="51.9311053678" lon="-1.8787018396"><ele>178.94</ele><time>2013-10-23T09:43:47Z</time></trkpt><trkpt lat="51.9314183481" lon="-1.8786199484"><ele>184.23</ele><time>2013-10-23T09:55:15Z</time></trkpt><trkpt lat="51.9317851402" lon="-1.8796375953"><ele>179.90</ele><time>2013-10-23T09:59:27Z</time></trkpt><trkpt lat="51.9321242720" lon="-1.8809719943"><ele>180.87</ele><time>2013-10-23T10:00:31Z</time></trkpt><trkpt lat="51.9327635597" lon="-1.8819897249"><ele>179.90</ele><time>2013-10-23T10:02:08Z</time></trkpt><trkpt lat="51.9350992609" lon="-1.8824565969"><ele>186.63</ele><time>2013-10-23T10:06:02Z</time></trkpt><trkpt lat="51.9359427318" lon="-1.8840857875"><ele>177.02</ele><time>2013-10-23T10:07:58Z</time></trkpt><trkpt lat="51.9370365702" lon="-1.8856338412"><ele>177.98</ele><time>2013-10-23T10:10:37Z</time></trkpt><trkpt lat="51.9389081653" lon="-1.8855353538"><ele>184.71</ele><time>2013-10-23T10:14:36Z</time></trkpt><trkpt lat="51.9402873237" lon="-1.8865369912"><ele>183.27</ele><time>2013-10-23T10:17:16Z</time></trkpt><trkpt lat="51.9417307712" lon="-1.8862297107"><ele>183.27</ele><time>2013-10-23T10:19:26Z</time></trkpt><trkpt lat="51.9414913002" lon="-1.8854413927"><ele>187.59</ele><time>2013-10-23T10:22:42Z</time></trkpt><trkpt lat="51.9411255140" lon="-1.8838427123"><ele>198.65</ele><time>2013-10-23T10:24:44Z</time></trkpt><trkpt lat="51.9408868812" lon="-1.8822866119"><ele>210.67</ele><time>2013-10-23T10:26:25Z</time></trkpt><trkpt lat="51.9406500924" lon="-1.8807399832"><ele>220.76</ele><time>2013-10-23T10:27:58Z</time></trkpt><trkpt lat="51.9404322468" lon="-1.8791683763"><ele>219.80</ele><time>2013-10-23T10:29:39Z</time></trkpt><trkpt lat="51.9403500203" lon="-1.8776504975"><ele>220.76</ele><time>2013-10-23T10:31:41Z</time></trkpt><trkpt lat="51.9402609207" lon="-1.8760914635"><ele>223.16</ele><time>2013-10-23T10:33:15Z</time></trkpt><trkpt lat="51.9401641097" lon="-1.8744898494"><ele>229.89</ele><time>2013-10-23T10:35:03Z</time></trkpt><trkpt lat="51.9398855790" lon="-1.8726341799"><ele>227.49</ele><time>2013-10-23T10:36:54Z</time></trkpt><trkpt lat="51.9393734448" lon="-1.8708251137"><ele>225.09</ele><time>2013-10-23T10:39:08Z</time></trkpt><trkpt lat="51.9389259350" lon="-1.8691816740"><ele>217.88</ele><time>2013-10-23T10:42:24Z</time></trkpt><trkpt lat="51.9387076702" lon="-1.8676468637"><ele>215.47</ele><time>2013-10-23T10:44:03Z</time></trkpt><trkpt lat="51.9382533710" lon="-1.8660396338"><ele>206.82</ele><time>2013-10-23T10:46:02Z</time></trkpt><trkpt lat="51.9379856531" lon="-1.8648530077"><ele>205.38</ele><time>2013-10-23T10:47:54Z</time></trkpt><trkpt lat="51.9383630902" lon="-1.8635047786"><ele>197.21</ele><time>2013-10-23T10:49:21Z</time></trkpt><trkpt lat="51.9384625833" lon="-1.8620789330"><ele>193.36</ele><time>2013-10-23T10:51:01Z</time></trkpt><trkpt lat="51.9379080366" lon="-1.8610461149"><ele>193.36</ele><time>2013-10-23T10:53:03Z</time></trkpt><trkpt lat="51.9372490514" lon="-1.8602907378"><ele>191.92</ele><time>2013-10-23T10:55:25Z</time></trkpt></trkseg></trk></gpx>